Airfield :
LOGIN :

Register | Disclaimer

   EN    FR    IT 

 










Legend :    VFR   Marginal VFR   IFR   Intensive IFR   Very Intensive IFR
Visi :
Ceiling :
>= 8 km
>= 3000ft
5 to 8 km
1000 to 3000 ft
1500m to 5 km
500 to 1000 ft
800 to 1500m
200 to 500 ft
< 800m
< 200 ft
Symbols :   Thunderstorms  Fog  Heavy snow  Heavy precipitations  Wind > 20 kt
SIGMETs :     Misc.  Thunderstorms  Icing  Turbulence  Mountain Waves  Volcanic Ashes






- Airport Elevation : 13 ft
- IATA code : SNR


LFRZ - St-Nazaire

CURRENT METAR :
  • 232230Z AUTO VRB02KT 5000 BR OVC035 13/13 Q1005 BECMG BKN014

EXPIRED METARs :
  • 232200Z AUTO 05003KT 4800 BR BKN037 BKN098 13/12 Q1005 BECMG 9999 NSW BKN014
  • 232130Z AUTO 02003KT 5000 BR BKN039 BKN100 13/13 Q1005 BECMG BKN014
  • 232100Z AUTO 35005KT 5000 BR BKN037 13/13 Q1005 BECMG BKN014
  • 232030Z AUTO 02004KT 6000 BKN037 OVC096 14/13 Q1005 BECMG BKN014
  • 232000Z AUTO 02003KT 6000 FEW037 OVC096 14/13 Q1005 NOSIG

TAF AMD TAF LFRZ
Valid from the 23 at 21:00 until the 24 at 18:00 UTC


232105Z 2321/2418 04006KT 9999 SCT030
TEMPO 2321/2323 3000 MIFG
BECMG 2323/2401 BKN014
TEMPO 2401/2414 3000 -DZRA BKN008
TEMPO 2405/2409 1000 RA BKN008TCU
BECMG 2406/2408 28010KT
BECMG 2414/2416 SCT020



MET'MAP, your aeronautical weather chart ! - Copyright ORBIFLY December 2007 - Disclaimer

ORBIFLY MET'MAP TEAM :

Programming & Development : Alexandra Zaïnal
Concept & Development : Baudouin d'Aumeries
Co-Development & Prog : Marc-Olivier Méhu
Technical & hardware support : Manuel Goepfert

Contact : metmap@orbifly.com




SOURCES & CREDITS :

   NOAA